sensor_id;sensor_type;location;lat;lon;timestamp;P1;durP1;ratioP1;P2;durP2;ratioP2
19651;SDS011;9974;52.146;14.668;2023-03-26T00:00:37;1.15;;;0.65;;
19651;SDS011;9974;52.146;14.668;2023-03-26T00:03:04;1.85;;;0.90;;
19651;SDS011;9974;52.146;14.668;2023-03-26T00:05:30;3.35;;;0.68;;
19651;SDS011;9974;52.146;14.668;2023-03-26T00:07:57;3.30;;;0.85;;
19651;SDS011;9974;52.146;14.668;2023-03-26T00:10:23;1.98;;;0.80;;
19651;SDS011;9974;52.146;14.668;2023-03-26T00:12:49;2.15;;;0.90;;
19651;SDS011;9974;52.146;14.668;2023-03-26T00:15:15;2.92;;;0.80;;
19651;SDS011;9974;52.146;14.668;2023-03-26T00:17:41;2.10;;;0.80;;
19651;SDS011;9974;52.146;14.668;2023-03-26T00:20:10;2.42;;;1.00;;
19651;SDS011;9974;52.146;14.668;2023-03-26T00:22:37;3.40;;;1.05;;
19651;SDS011;9974;52.146;14.668;2023-03-26T00:25:04;4.10;;;1.17;;
19651;SDS011;9974;52.146;14.668;2023-03-26T00:27:31;2.78;;;0.85;;
19651;SDS011;9974;52.146;14.668;2023-03-26T00:29:57;4.53;;;1.08;;
19651;SDS011;9974;52.146;14.668;2023-03-26T00:32:24;1.80;;;0.85;;
19651;SDS011;9974;52.146;14.668;2023-03-26T00:34:54;2.70;;;0.90;;
19651;SDS011;9974;52.146;14.668;2023-03-26T00:37:21;3.08;;;1.00;;
19651;SDS011;9974;52.146;14.668;2023-03-26T00:39:51;0.93;;;0.60;;
19651;SDS011;9974;52.146;14.668;2023-03-26T00:42:17;3.33;;;1.10;;
19651;SDS011;9974;52.146;14.668;2023-03-26T00:44:44;2.97;;;1.15;;
19651;SDS011;9974;52.146;14.668;2023-03-26T00:47:10;5.20;;;1.17;;
19651;SDS011;9974;52.146;14.668;2023-03-26T00:49:37;3.65;;;0.85;;
19651;SDS011;9974;52.146;14.668;2023-03-26T00:52:03;3.95;;;1.42;;
19651;SDS011;9974;52.146;14.668;2023-03-26T00:54:32;6.82;;;1.10;;
19651;SDS011;9974;52.146;14.668;2023-03-26T00:56:59;4.57;;;1.00;;
19651;SDS011;9974;52.146;14.668;2023-03-26T00:59:25;3.70;;;1.13;;
19651;SDS011;9974;52.146;14.668;2023-03-26T01:01:54;2.05;;;0.93;;
19651;SDS011;9974;52.146;14.668;2023-03-26T01:04:23;2.70;;;1.13;;
19651;SDS011;9974;52.146;14.668;2023-03-26T01:06:54;3.75;;;1.40;;
19651;SDS011;9974;52.146;14.668;2023-03-26T01:09:23;3.65;;;1.08;;
19651;SDS011;9974;52.146;14.668;2023-03-26T01:11:54;2.03;;;1.17;;
19651;SDS011;9974;52.146;14.668;2023-03-26T01:14:24;2.25;;;1.10;;
19651;SDS011;9974;52.146;14.668;2023-03-26T01:16:56;3.47;;;1.08;;
19651;SDS011;9974;52.146;14.668;2023-03-26T01:22:16;2.20;;;0.68;;
19651;SDS011;9974;52.146;14.668;2023-03-26T01:24:44;3.63;;;0.90;;
19651;SDS011;9974;52.146;14.668;2023-03-26T01:27:19;4.18;;;1.10;;
19651;SDS011;9974;52.146;14.668;2023-03-26T01:35:33;2.30;;;0.63;;
19651;SDS011;9974;52.146;14.668;2023-03-26T01:38:26;2.33;;;0.85;;
19651;SDS011;9974;52.146;14.668;2023-03-26T01:41:18;3.80;;;1.52;;
19651;SDS011;9974;52.146;14.668;2023-03-26T01:46:36;3.35;;;0.85;;
19651;SDS011;9974;52.146;14.668;2023-03-26T01:49:03;2.78;;;0.73;;
19651;SDS011;9974;52.146;14.668;2023-03-26T01:51:30;1.65;;;0.50;;
19651;SDS011;9974;52.146;14.668;2023-03-26T01:54:00;1.95;;;0.60;;
19651;SDS011;9974;52.146;14.668;2023-03-26T01:56:44;5.07;;;0.60;;
19651;SDS011;9974;52.146;14.668;2023-03-26T02:01:58;1.27;;;0.50;;
19651;SDS011;9974;52.146;14.668;2023-03-26T02:04:53;1.90;;;0.50;;
19651;SDS011;9974;52.146;14.668;2023-03-26T02:07:33;2.20;;;0.55;;
19651;SDS011;9974;52.146;14.668;2023-03-26T02:10:34;0.55;;;0.38;;
19651;SDS011;9974;52.146;14.668;2023-03-26T02:13:03;1.63;;;0.57;;
19651;SDS011;9974;52.146;14.668;2023-03-26T02:15:30;2.67;;;0.70;;
19651;SDS011;9974;52.146;14.668;2023-03-26T02:17:56;2.78;;;0.73;;
19651;SDS011;9974;52.146;14.668;2023-03-26T02:20:23;2.05;;;0.65;;
19651;SDS011;9974;52.146;14.668;2023-03-26T02:22:54;0.82;;;0.50;;
19651;SDS011;9974;52.146;14.668;2023-03-26T02:25:21;0.93;;;0.50;;
19651;SDS011;9974;52.146;14.668;2023-03-26T02:27:47;1.57;;;0.50;;
19651;SDS011;9974;52.146;14.668;2023-03-26T02:30:16;0.70;;;0.60;;
19651;SDS011;9974;52.146;14.668;2023-03-26T02:32:49;2.17;;;0.68;;
19651;SDS011;9974;52.146;14.668;2023-03-26T02:35:18;1.65;;;0.88;;
19651;SDS011;9974;52.146;14.668;2023-03-26T02:37:46;1.90;;;0.90;;
19651;SDS011;9974;52.146;14.668;2023-03-26T02:40:14;2.78;;;0.80;;
19651;SDS011;9974;52.146;14.668;2023-03-26T02:42:41;2.90;;;0.98;;
19651;SDS011;9974;52.146;14.668;2023-03-26T02:45:07;1.60;;;1.13;;
19651;SDS011;9974;52.146;14.668;2023-03-26T02:47:33;5.35;;;1.25;;
19651;SDS011;9974;52.146;14.668;2023-03-26T02:49:59;0.90;;;0.80;;
19651;SDS011;9974;52.146;14.668;2023-03-26T02:52:25;3.25;;;1.10;;
19651;SDS011;9974;52.146;14.668;2023-03-26T02:54:51;2.28;;;1.17;;
19651;SDS011;9974;52.146;14.668;2023-03-26T02:57:17;5.55;;;1.05;;
19651;SDS011;9974;52.146;14.668;2023-03-26T02:59:43;2.30;;;1.17;;
19651;SDS011;9974;52.146;14.668;2023-03-26T03:02:10;2.22;;;1.10;;
19651;SDS011;9974;52.146;14.668;2023-03-26T03:04:37;4.07;;;1.38;;
19651;SDS011;9974;52.146;14.668;2023-03-26T03:07:03;5.87;;;1.90;;
19651;SDS011;9974;52.146;14.668;2023-03-26T03:09:29;1.50;;;1.10;;
19651;SDS011;9974;52.146;14.668;2023-03-26T03:11:55;3.70;;;1.10;;
19651;SDS011;9974;52.146;14.668;2023-03-26T03:14:22;1.02;;;0.77;;
19651;SDS011;9974;52.146;14.668;2023-03-26T03:16:48;2.92;;;1.20;;
19651;SDS011;9974;52.146;14.668;2023-03-26T03:19:14;4.15;;;1.02;;
19651;SDS011;9974;52.146;14.668;2023-03-26T03:21:40;3.53;;;1.00;;
19651;SDS011;9974;52.146;14.668;2023-03-26T03:24:06;3.00;;;1.15;;
19651;SDS011;9974;52.146;14.668;2023-03-26T03:26:33;4.18;;;1.15;;
19651;SDS011;9974;52.146;14.668;2023-03-26T03:29:00;2.47;;;1.10;;
19651;SDS011;9974;52.146;14.668;2023-03-26T03:31:26;4.05;;;1.00;;
19651;SDS011;9974;52.146;14.668;2023-03-26T03:33:52;4.68;;;1.17;;
19651;SDS011;9974;52.146;14.668;2023-03-26T03:36:19;4.10;;;0.90;;
19651;SDS011;9974;52.146;14.668;2023-03-26T03:38:46;2.20;;;0.90;;
19651;SDS011;9974;52.146;14.668;2023-03-26T03:41:13;3.83;;;1.15;;
19651;SDS011;9974;52.146;14.668;2023-03-26T03:43:39;3.65;;;1.00;;
19651;SDS011;9974;52.146;14.668;2023-03-26T03:46:05;1.85;;;1.02;;
19651;SDS011;9974;52.146;14.668;2023-03-26T03:48:31;2.97;;;1.20;;
19651;SDS011;9974;52.146;14.668;2023-03-26T03:50:57;1.95;;;1.10;;
19651;SDS011;9974;52.146;14.668;2023-03-26T03:53:24;6.00;;;1.13;;
19651;SDS011;9974;52.146;14.668;2023-03-26T03:55:53;6.07;;;2.00;;
19651;SDS011;9974;52.146;14.668;2023-03-26T03:58:20;2.35;;;1.55;;
19651;SDS011;9974;52.146;14.668;2023-03-26T04:00:49;1.45;;;0.98;;
19651;SDS011;9974;52.146;14.668;2023-03-26T04:03:16;3.83;;;1.48;;
19651;SDS011;9974;52.146;14.668;2023-03-26T04:05:43;3.50;;;1.63;;
19651;SDS011;9974;52.146;14.668;2023-03-26T04:08:13;4.57;;;1.60;;
19651;SDS011;9974;52.146;14.668;2023-03-26T04:10:40;3.85;;;1.65;;
19651;SDS011;9974;52.146;14.668;2023-03-26T04:13:07;3.95;;;1.80;;
19651;SDS011;9974;52.146;14.668;2023-03-26T04:15:37;3.88;;;1.33;;
19651;SDS011;9974;52.146;14.668;2023-03-26T04:18:03;2.22;;;1.40;;
19651;SDS011;9974;52.146;14.668;2023-03-26T04:20:34;4.32;;;1.77;;
19651;SDS011;9974;52.146;14.668;2023-03-26T04:23:01;1.70;;;1.20;;
19651;SDS011;9974;52.146;14.668;2023-03-26T04:25:28;4.88;;;2.00;;
19651;SDS011;9974;52.146;14.668;2023-03-26T04:27:57;2.17;;;1.33;;
19651;SDS011;9974;52.146;14.668;2023-03-26T04:30:30;6.15;;;1.65;;
19651;SDS011;9974;52.146;14.668;2023-03-26T04:32:58;3.22;;;1.48;;
19651;SDS011;9974;52.146;14.668;2023-03-26T04:35:30;3.45;;;1.50;;
19651;SDS011;9974;52.146;14.668;2023-03-26T04:38:01;3.55;;;1.35;;
19651;SDS011;9974;52.146;14.668;2023-03-26T04:40:30;3.35;;;1.52;;
19651;SDS011;9974;52.146;14.668;2023-03-26T04:42:58;1.92;;;1.20;;
19651;SDS011;9974;52.146;14.668;2023-03-26T04:45:28;3.22;;;1.60;;
19651;SDS011;9974;52.146;14.668;2023-03-26T04:47:55;3.45;;;1.10;;
19651;SDS011;9974;52.146;14.668;2023-03-26T04:50:22;4.20;;;1.45;;
19651;SDS011;9974;52.146;14.668;2023-03-26T04:52:48;4.90;;;1.70;;
19651;SDS011;9974;52.146;14.668;2023-03-26T04:55:18;3.10;;;1.70;;
19651;SDS011;9974;52.146;14.668;2023-03-26T04:57:55;2.95;;;1.80;;
19651;SDS011;9974;52.146;14.668;2023-03-26T05:00:23;6.53;;;2.20;;
19651;SDS011;9974;52.146;14.668;2023-03-26T05:02:49;3.47;;;1.90;;
19651;SDS011;9974;52.146;14.668;2023-03-26T05:05:17;10.07;;;2.60;;
19651;SDS011;9974;52.146;14.668;2023-03-26T05:07:43;5.07;;;1.83;;
19651;SDS011;9974;52.146;14.668;2023-03-26T05:10:11;3.95;;;2.25;;
19651;SDS011;9974;52.146;14.668;2023-03-26T05:12:38;5.30;;;2.08;;
19651;SDS011;9974;52.146;14.668;2023-03-26T05:15:03;3.85;;;1.42;;
19651;SDS011;9974;52.146;14.668;2023-03-26T05:17:30;3.28;;;1.50;;
19651;SDS011;9974;52.146;14.668;2023-03-26T05:19:58;2.17;;;1.45;;
19651;SDS011;9974;52.146;14.668;2023-03-26T05:22:25;4.35;;;1.88;;
19651;SDS011;9974;52.146;14.668;2023-03-26T05:24:51;3.23;;;1.60;;
19651;SDS011;9974;52.146;14.668;2023-03-26T05:27:17;5.78;;;1.55;;
19651;SDS011;9974;52.146;14.668;2023-03-26T05:29:44;3.00;;;1.55;;
19651;SDS011;9974;52.146;14.668;2023-03-26T05:32:10;5.65;;;1.83;;
19651;SDS011;9974;52.146;14.668;2023-03-26T05:34:40;3.60;;;1.75;;
19651;SDS011;9974;52.146;14.668;2023-03-26T05:37:05;4.38;;;2.15;;
19651;SDS011;9974;52.146;14.668;2023-03-26T05:39:33;3.72;;;1.95;;
19651;SDS011;9974;52.146;14.668;2023-03-26T05:41:59;5.53;;;2.45;;
19651;SDS011;9974;52.146;14.668;2023-03-26T05:44:25;5.45;;;2.72;;
19651;SDS011;9974;52.146;14.668;2023-03-26T05:46:51;4.60;;;2.95;;
19651;SDS011;9974;52.146;14.668;2023-03-26T05:49:17;10.00;;;2.53;;
19651;SDS011;9974;52.146;14.668;2023-03-26T05:51:43;4.97;;;1.92;;
19651;SDS011;9974;52.146;14.668;2023-03-26T05:54:09;3.58;;;1.63;;
19651;SDS011;9974;52.146;14.668;2023-03-26T05:56:36;4.05;;;2.20;;
19651;SDS011;9974;52.146;14.668;2023-03-26T05:59:01;4.15;;;2.38;;
19651;SDS011;9974;52.146;14.668;2023-03-26T06:01:27;5.25;;;3.30;;
19651;SDS011;9974;52.146;14.668;2023-03-26T06:03:53;5.15;;;2.67;;
19651;SDS011;9974;52.146;14.668;2023-03-26T06:06:20;4.37;;;1.90;;
19651;SDS011;9974;52.146;14.668;2023-03-26T06:08:47;4.80;;;1.60;;
19651;SDS011;9974;52.146;14.668;2023-03-26T06:11:16;3.13;;;1.70;;
19651;SDS011;9974;52.146;14.668;2023-03-26T06:13:43;3.10;;;1.77;;
19651;SDS011;9974;52.146;14.668;2023-03-26T06:16:10;2.00;;;1.38;;
19651;SDS011;9974;52.146;14.668;2023-03-26T06:18:36;4.57;;;1.80;;
19651;SDS011;9974;52.146;14.668;2023-03-26T06:21:03;1.58;;;1.30;;
19651;SDS011;9974;52.146;14.668;2023-03-26T06:23:30;2.45;;;1.30;;
19651;SDS011;9974;52.146;14.668;2023-03-26T06:25:56;5.85;;;1.80;;
19651;SDS011;9974;52.146;14.668;2023-03-26T06:28:22;2.80;;;1.92;;
19651;SDS011;9974;52.146;14.668;2023-03-26T06:30:49;5.03;;;1.50;;
19651;SDS011;9974;52.146;14.668;2023-03-26T06:33:16;4.88;;;1.85;;
19651;SDS011;9974;52.146;14.668;2023-03-26T06:35:42;3.60;;;1.88;;
19651;SDS011;9974;52.146;14.668;2023-03-26T06:38:09;7.80;;;2.35;;
19651;SDS011;9974;52.146;14.668;2023-03-26T06:40:35;5.10;;;1.92;;
19651;SDS011;9974;52.146;14.668;2023-03-26T06:43:02;7.28;;;2.15;;
19651;SDS011;9974;52.146;14.668;2023-03-26T06:45:28;6.40;;;2.17;;
19651;SDS011;9974;52.146;14.668;2023-03-26T06:47:54;4.60;;;2.00;;
19651;SDS011;9974;52.146;14.668;2023-03-26T06:50:20;3.28;;;1.60;;
19651;SDS011;9974;52.146;14.668;2023-03-26T06:52:46;5.55;;;1.92;;
19651;SDS011;9974;52.146;14.668;2023-03-26T06:55:14;3.22;;;1.27;;
19651;SDS011;9974;52.146;14.668;2023-03-26T06:57:40;3.78;;;1.60;;
19651;SDS011;9974;52.146;14.668;2023-03-26T07:00:09;4.68;;;2.47;;
19651;SDS011;9974;52.146;14.668;2023-03-26T07:02:37;5.20;;;2.00;;
19651;SDS011;9974;52.146;14.668;2023-03-26T07:05:03;3.20;;;1.98;;
19651;SDS011;9974;52.146;14.668;2023-03-26T07:07:29;8.48;;;2.15;;
19651;SDS011;9974;52.146;14.668;2023-03-26T07:09:56;3.13;;;1.65;;
19651;SDS011;9974;52.146;14.668;2023-03-26T07:12:22;5.35;;;1.60;;
19651;SDS011;9974;52.146;14.668;2023-03-26T07:14:49;5.57;;;1.85;;
19651;SDS011;9974;52.146;14.668;2023-03-26T07:17:15;2.50;;;1.65;;
19651;SDS011;9974;52.146;14.668;2023-03-26T07:19:41;7.35;;;2.13;;
19651;SDS011;9974;52.146;14.668;2023-03-26T07:22:11;4.20;;;2.03;;
19651;SDS011;9974;52.146;14.668;2023-03-26T07:24:48;3.17;;;1.88;;
19651;SDS011;9974;52.146;14.668;2023-03-26T07:27:26;5.43;;;2.28;;
19651;SDS011;9974;52.146;14.668;2023-03-26T07:30:18;6.60;;;2.85;;
19651;SDS011;9974;52.146;14.668;2023-03-26T07:36:20;3.40;;;1.88;;
19651;SDS011;9974;52.146;14.668;2023-03-26T07:39:06;8.63;;;3.22;;
19651;SDS011;9974;52.146;14.668;2023-03-26T07:42:02;8.02;;;4.13;;
19651;SDS011;9974;52.146;14.668;2023-03-26T07:47:27;3.60;;;2.50;;
19651;SDS011;9974;52.146;14.668;2023-03-26T07:49:57;4.95;;;2.20;;
19651;SDS011;9974;52.146;14.668;2023-03-26T07:52:23;13.57;;;4.78;;
19651;SDS011;9974;52.146;14.668;2023-03-26T07:54:50;3.42;;;1.88;;
19651;SDS011;9974;52.146;14.668;2023-03-26T08:00:29;7.10;;;2.10;;
19651;SDS011;9974;52.146;14.668;2023-03-26T08:03:12;3.88;;;2.03;;
19651;SDS011;9974;52.146;14.668;2023-03-26T08:06:09;5.47;;;1.92;;
19651;SDS011;9974;52.146;14.668;2023-03-26T08:08:45;6.22;;;1.70;;
19651;SDS011;9974;52.146;14.668;2023-03-26T08:11:33;6.80;;;1.85;;
19651;SDS011;9974;52.146;14.668;2023-03-26T08:20:10;4.88;;;2.50;;
19651;SDS011;9974;52.146;14.668;2023-03-26T08:22:54;14.35;;;7.15;;
19651;SDS011;9974;52.146;14.668;2023-03-26T08:25:34;7.63;;;4.10;;
19651;SDS011;9974;52.146;14.668;2023-03-26T08:31:10;4.95;;;2.38;;
19651;SDS011;9974;52.146;14.668;2023-03-26T08:33:37;28.20;;;19.33;;
19651;SDS011;9974;52.146;14.668;2023-03-26T08:36:04;10.30;;;3.72;;
19651;SDS011;9974;52.146;14.668;2023-03-26T08:38:32;3.15;;;1.55;;
19651;SDS011;9974;52.146;14.668;2023-03-26T08:43:53;3.72;;;1.45;;
19651;SDS011;9974;52.146;14.668;2023-03-26T08:46:50;2.50;;;1.13;;
19651;SDS011;9974;52.146;14.668;2023-03-26T08:58:14;19.05;;;11.25;;
19651;SDS011;9974;52.146;14.668;2023-03-26T09:01:34;14.55;;;9.00;;
19651;SDS011;9974;52.146;14.668;2023-03-26T09:04:52;10.30;;;6.07;;
19651;SDS011;9974;52.146;14.668;2023-03-26T09:07:53;17.50;;;8.07;;
19651;SDS011;9974;52.146;14.668;2023-03-26T09:16:58;5.20;;;1.17;;
19651;SDS011;9974;52.146;14.668;2023-03-26T09:27:53;5.90;;;2.33;;
19651;SDS011;9974;52.146;14.668;2023-03-26T09:39:21;15.38;;;6.65;;
19651;SDS011;9974;52.146;14.668;2023-03-26T09:42:04;5.65;;;1.88;;
19651;SDS011;9974;52.146;14.668;2023-03-26T09:58:51;2.35;;;1.10;;
19651;SDS011;9974;52.146;14.668;2023-03-26T10:04:22;9.40;;;1.02;;
19651;SDS011;9974;52.146;14.668;2023-03-26T10:06:57;10.55;;;2.67;;
19651;SDS011;9974;52.146;14.668;2023-03-26T10:09:44;3.42;;;1.02;;
19651;SDS011;9974;52.146;14.668;2023-03-26T10:12:57;4.40;;;1.40;;
19651;SDS011;9974;52.146;14.668;2023-03-26T10:15:53;3.03;;;1.13;;
19651;SDS011;9974;52.146;14.668;2023-03-26T10:27:32;4.82;;;1.45;;
19651;SDS011;9974;52.146;14.668;2023-03-26T10:33:08;2.97;;;1.00;;
19651;SDS011;9974;52.146;14.668;2023-03-26T10:36:26;4.35;;;1.35;;
19651;SDS011;9974;52.146;14.668;2023-03-26T10:41:52;3.15;;;0.77;;
19651;SDS011;9974;52.146;14.668;2023-03-26T10:44:43;2.47;;;1.17;;
19651;SDS011;9974;52.146;14.668;2023-03-26T10:47:49;1.38;;;0.80;;
19651;SDS011;9974;52.146;14.668;2023-03-26T10:50:48;5.35;;;0.70;;
19651;SDS011;9974;52.146;14.668;2023-03-26T10:53:46;2.20;;;0.70;;
19651;SDS011;9974;52.146;14.668;2023-03-26T10:56:17;7.57;;;1.33;;
19651;SDS011;9974;52.146;14.668;2023-03-26T10:58:47;3.53;;;0.80;;
19651;SDS011;9974;52.146;14.668;2023-03-26T11:04:03;3.80;;;0.60;;
19651;SDS011;9974;52.146;14.668;2023-03-26T11:06:52;1.63;;;0.60;;
19651;SDS011;9974;52.146;14.668;2023-03-26T11:12:16;5.28;;;0.90;;
19651;SDS011;9974;52.146;14.668;2023-03-26T11:20:15;1.55;;;0.70;;
19651;SDS011;9974;52.146;14.668;2023-03-26T11:23:14;5.20;;;0.95;;
19651;SDS011;9974;52.146;14.668;2023-03-26T11:31:09;2.38;;;0.73;;
19651;SDS011;9974;52.146;14.668;2023-03-26T11:33:56;2.95;;;0.93;;
19651;SDS011;9974;52.146;14.668;2023-03-26T11:36:30;4.38;;;0.95;;
19651;SDS011;9974;52.146;14.668;2023-03-26T11:39:00;2.53;;;0.88;;
19651;SDS011;9974;52.146;14.668;2023-03-26T11:41:29;4.72;;;1.02;;
19651;SDS011;9974;52.146;14.668;2023-03-26T11:43:56;2.50;;;1.02;;
19651;SDS011;9974;52.146;14.668;2023-03-26T11:46:29;2.20;;;0.68;;
19651;SDS011;9974;52.146;14.668;2023-03-26T11:48:57;1.63;;;0.57;;
19651;SDS011;9974;52.146;14.668;2023-03-26T11:51:30;3.75;;;1.00;;
19651;SDS011;9974;52.146;14.668;2023-03-26T11:53:58;4.28;;;0.70;;
19651;SDS011;9974;52.146;14.668;2023-03-26T11:56:31;3.15;;;0.90;;
19651;SDS011;9974;52.146;14.668;2023-03-26T11:59:09;8.65;;;1.10;;
19651;SDS011;9974;52.146;14.668;2023-03-26T12:04:24;2.25;;;0.90;;
19651;SDS011;9974;52.146;14.668;2023-03-26T12:07:28;8.27;;;1.40;;
19651;SDS011;9974;52.146;14.668;2023-03-26T12:09:59;10.13;;;1.27;;
19651;SDS011;9974;52.146;14.668;2023-03-26T12:12:30;3.47;;;1.08;;
19651;SDS011;9974;52.146;14.668;2023-03-26T12:15:01;2.13;;;0.90;;
19651;SDS011;9974;52.146;14.668;2023-03-26T12:17:32;3.35;;;0.98;;
19651;SDS011;9974;52.146;14.668;2023-03-26T12:20:20;4.95;;;0.70;;
19651;SDS011;9974;52.146;14.668;2023-03-26T12:22:50;3.53;;;0.85;;
19651;SDS011;9974;52.146;14.668;2023-03-26T12:25:21;2.65;;;0.93;;
19651;SDS011;9974;52.146;14.668;2023-03-26T12:30:51;3.03;;;0.82;;
19651;SDS011;9974;52.146;14.668;2023-03-26T12:33:28;4.85;;;0.90;;
19651;SDS011;9974;52.146;14.668;2023-03-26T12:35:58;3.22;;;0.98;;
19651;SDS011;9974;52.146;14.668;2023-03-26T12:38:43;5.97;;;1.17;;
19651;SDS011;9974;52.146;14.668;2023-03-26T12:41:14;1.10;;;0.60;;
19651;SDS011;9974;52.146;14.668;2023-03-26T12:43:45;1.95;;;0.88;;
19651;SDS011;9974;52.146;14.668;2023-03-26T12:46:29;2.83;;;0.63;;
19651;SDS011;9974;52.146;14.668;2023-03-26T12:48:57;1.92;;;0.88;;
19651;SDS011;9974;52.146;14.668;2023-03-26T12:51:31;3.50;;;0.88;;
19651;SDS011;9974;52.146;14.668;2023-03-26T12:57:15;3.28;;;0.57;;
19651;SDS011;9974;52.146;14.668;2023-03-26T13:00:08;3.05;;;0.68;;
19651;SDS011;9974;52.146;14.668;2023-03-26T13:03:03;1.42;;;0.60;;
19651;SDS011;9974;52.146;14.668;2023-03-26T13:06:01;2.60;;;0.70;;
19651;SDS011;9974;52.146;14.668;2023-03-26T13:08:54;2.78;;;0.57;;
19651;SDS011;9974;52.146;14.668;2023-03-26T13:14:33;3.53;;;1.00;;
19651;SDS011;9974;52.146;14.668;2023-03-26T13:17:57;2.15;;;0.90;;
19651;SDS011;9974;52.146;14.668;2023-03-26T13:29:09;2.05;;;0.60;;
19651;SDS011;9974;52.146;14.668;2023-03-26T13:32:17;4.38;;;0.95;;
19651;SDS011;9974;52.146;14.668;2023-03-26T13:35:10;1.38;;;0.60;;
19651;SDS011;9974;52.146;14.668;2023-03-26T13:40:24;3.75;;;1.23;;
19651;SDS011;9974;52.146;14.668;2023-03-26T13:45:51;2.88;;;0.75;;
19651;SDS011;9974;52.146;14.668;2023-03-26T13:48:46;5.88;;;0.77;;
19651;SDS011;9974;52.146;14.668;2023-03-26T13:51:27;1.48;;;0.70;;
19651;SDS011;9974;52.146;14.668;2023-03-26T13:56:39;4.35;;;0.93;;
19651;SDS011;9974;52.146;14.668;2023-03-26T13:59:11;4.90;;;1.17;;
19651;SDS011;9974;52.146;14.668;2023-03-26T14:01:52;4.15;;;1.58;;
19651;SDS011;9974;52.146;14.668;2023-03-26T14:04:42;2.88;;;0.95;;
19651;SDS011;9974;52.146;14.668;2023-03-26T14:07:11;4.38;;;0.90;;
19651;SDS011;9974;52.146;14.668;2023-03-26T14:12:37;2.35;;;1.08;;
19651;SDS011;9974;52.146;14.668;2023-03-26T14:21:05;1.77;;;0.90;;
19651;SDS011;9974;52.146;14.668;2023-03-26T14:23:52;2.38;;;0.73;;
19651;SDS011;9974;52.146;14.668;2023-03-26T14:37:37;4.50;;;0.90;;
19651;SDS011;9974;52.146;14.668;2023-03-26T14:40:22;3.63;;;0.80;;
19651;SDS011;9974;52.146;14.668;2023-03-26T14:46:27;2.65;;;1.13;;
19651;SDS011;9974;52.146;14.668;2023-03-26T14:49:12;2.70;;;0.70;;
19651;SDS011;9974;52.146;14.668;2023-03-26T14:51:56;2.80;;;0.70;;
19651;SDS011;9974;52.146;14.668;2023-03-26T14:54:43;1.75;;;0.60;;
19651;SDS011;9974;52.146;14.668;2023-03-26T14:57:20;2.88;;;0.55;;
19651;SDS011;9974;52.146;14.668;2023-03-26T15:03:13;3.55;;;0.80;;
19651;SDS011;9974;52.146;14.668;2023-03-26T15:06:05;2.53;;;0.77;;
19651;SDS011;9974;52.146;14.668;2023-03-26T15:12:08;3.60;;;0.93;;
19651;SDS011;9974;52.146;14.668;2023-03-26T15:15:12;2.65;;;0.98;;
19651;SDS011;9974;52.146;14.668;2023-03-26T15:18:04;2.17;;;0.80;;
19651;SDS011;9974;52.146;14.668;2023-03-26T15:21:09;2.45;;;1.55;;
19651;SDS011;9974;52.146;14.668;2023-03-26T15:32:56;2.83;;;0.80;;
19651;SDS011;9974;52.146;14.668;2023-03-26T15:38:47;3.85;;;1.00;;
19651;SDS011;9974;52.146;14.668;2023-03-26T15:44:31;3.22;;;1.15;;
19651;SDS011;9974;52.146;14.668;2023-03-26T15:47:27;2.72;;;0.80;;
19651;SDS011;9974;52.146;14.668;2023-03-26T15:50:24;2.95;;;0.90;;
19651;SDS011;9974;52.146;14.668;2023-03-26T15:59:31;3.85;;;1.15;;
19651;SDS011;9974;52.146;14.668;2023-03-26T16:04:48;4.38;;;1.13;;
19651;SDS011;9974;52.146;14.668;2023-03-26T16:10:19;2.90;;;0.98;;
19651;SDS011;9974;52.146;14.668;2023-03-26T16:15:38;3.63;;;1.17;;
19651;SDS011;9974;52.146;14.668;2023-03-26T16:23:18;1.55;;;0.80;;
19651;SDS011;9974;52.146;14.668;2023-03-26T16:37:40;4.47;;;1.15;;
19651;SDS011;9974;52.146;14.668;2023-03-26T16:48:46;3.28;;;1.40;;
19651;SDS011;9974;52.146;14.668;2023-03-26T16:51:24;6.38;;;1.70;;
19651;SDS011;9974;52.146;14.668;2023-03-26T16:56:44;4.88;;;1.40;;
19651;SDS011;9974;52.146;14.668;2023-03-26T17:02:12;2.67;;;1.30;;
19651;SDS011;9974;52.146;14.668;2023-03-26T17:08:00;4.50;;;1.10;;
19651;SDS011;9974;52.146;14.668;2023-03-26T17:15:58;3.10;;;1.45;;
19651;SDS011;9974;52.146;14.668;2023-03-26T17:18:34;5.97;;;1.83;;
19651;SDS011;9974;52.146;14.668;2023-03-26T17:21:10;4.22;;;1.52;;
19651;SDS011;9974;52.146;14.668;2023-03-26T17:23:46;6.82;;;1.50;;
19651;SDS011;9974;52.146;14.668;2023-03-26T17:26:22;4.75;;;1.60;;
19651;SDS011;9974;52.146;14.668;2023-03-26T17:29:03;3.65;;;1.27;;
19651;SDS011;9974;52.146;14.668;2023-03-26T17:32:03;4.68;;;1.38;;
19651;SDS011;9974;52.146;14.668;2023-03-26T17:42:31;3.65;;;1.48;;
19651;SDS011;9974;52.146;14.668;2023-03-26T17:45:03;4.88;;;1.45;;
19651;SDS011;9974;52.146;14.668;2023-03-26T17:47:42;5.22;;;1.40;;
19651;SDS011;9974;52.146;14.668;2023-03-26T17:50:32;2.83;;;1.13;;
19651;SDS011;9974;52.146;14.668;2023-03-26T17:55:47;8.27;;;4.30;;
19651;SDS011;9974;52.146;14.668;2023-03-26T17:58:22;11.18;;;5.35;;
19651;SDS011;9974;52.146;14.668;2023-03-26T18:03:40;7.43;;;3.97;;
19651;SDS011;9974;52.146;14.668;2023-03-26T18:06:15;9.82;;;3.92;;
19651;SDS011;9974;52.146;14.668;2023-03-26T18:17:22;10.15;;;5.93;;
19651;SDS011;9974;52.146;14.668;2023-03-26T18:19:53;7.88;;;5.22;;
19651;SDS011;9974;52.146;14.668;2023-03-26T18:22:24;13.68;;;6.45;;
19651;SDS011;9974;52.146;14.668;2023-03-26T18:24:52;15.38;;;7.75;;
19651;SDS011;9974;52.146;14.668;2023-03-26T18:27:24;10.73;;;5.85;;
19651;SDS011;9974;52.146;14.668;2023-03-26T18:30:01;10.35;;;5.38;;
19651;SDS011;9974;52.146;14.668;2023-03-26T18:32:41;11.75;;;5.60;;
19651;SDS011;9974;52.146;14.668;2023-03-26T18:35:15;17.85;;;10.55;;
19651;SDS011;9974;52.146;14.668;2023-03-26T18:37:46;17.27;;;7.25;;
19651;SDS011;9974;52.146;14.668;2023-03-26T18:42:44;11.20;;;5.93;;
19651;SDS011;9974;52.146;14.668;2023-03-26T18:45:28;9.13;;;4.90;;
19651;SDS011;9974;52.146;14.668;2023-03-26T18:48:05;9.18;;;4.90;;
19651;SDS011;9974;52.146;14.668;2023-03-26T18:50:39;6.32;;;3.38;;
19651;SDS011;9974;52.146;14.668;2023-03-26T18:53:07;7.93;;;3.45;;
19651;SDS011;9974;52.146;14.668;2023-03-26T18:55:41;5.43;;;2.90;;
19651;SDS011;9974;52.146;14.668;2023-03-26T19:00:55;7.25;;;3.25;;
19651;SDS011;9974;52.146;14.668;2023-03-26T19:03:26;6.63;;;2.90;;
19651;SDS011;9974;52.146;14.668;2023-03-26T19:05:55;6.28;;;2.70;;
19651;SDS011;9974;52.146;14.668;2023-03-26T19:08:23;6.97;;;3.22;;
19651;SDS011;9974;52.146;14.668;2023-03-26T19:10:50;6.32;;;3.67;;
19651;SDS011;9974;52.146;14.668;2023-03-26T19:13:20;10.55;;;3.50;;
19651;SDS011;9974;52.146;14.668;2023-03-26T19:15:47;7.32;;;3.45;;
19651;SDS011;9974;52.146;14.668;2023-03-26T19:18:18;7.80;;;3.67;;
19651;SDS011;9974;52.146;14.668;2023-03-26T19:20:56;8.85;;;4.13;;
19651;SDS011;9974;52.146;14.668;2023-03-26T19:23:25;10.95;;;4.47;;
19651;SDS011;9974;52.146;14.668;2023-03-26T19:25:56;10.23;;;4.20;;
19651;SDS011;9974;52.146;14.668;2023-03-26T19:28:27;6.88;;;4.00;;
19651;SDS011;9974;52.146;14.668;2023-03-26T19:30:56;11.77;;;4.65;;
19651;SDS011;9974;52.146;14.668;2023-03-26T19:33:31;18.20;;;9.35;;
19651;SDS011;9974;52.146;14.668;2023-03-26T19:36:01;12.82;;;6.90;;
19651;SDS011;9974;52.146;14.668;2023-03-26T19:38:36;18.00;;;7.55;;
19651;SDS011;9974;52.146;14.668;2023-03-26T19:41:16;12.75;;;6.30;;
19651;SDS011;9974;52.146;14.668;2023-03-26T19:43:46;28.40;;;14.68;;
19651;SDS011;9974;52.146;14.668;2023-03-26T19:46:14;18.23;;;7.32;;
19651;SDS011;9974;52.146;14.668;2023-03-26T19:48:40;7.97;;;3.85;;
19651;SDS011;9974;52.146;14.668;2023-03-26T19:51:13;9.15;;;5.15;;
19651;SDS011;9974;52.146;14.668;2023-03-26T19:53:52;9.80;;;3.88;;
19651;SDS011;9974;52.146;14.668;2023-03-26T19:56:19;5.57;;;2.30;;